Time;durP1;ratioP1;P1;durP2;ratioP2;P2;SDS_P1;SDS_P2;PMS_P1;PMS_P2;Temp;Humidity;BMP_temperature;BMP_pressure;BME280_temperature;BME280_humidity;BME280_pressure;Samples;Min_cycle;Max_cycle;Signal;HPM_P1;HPM_P2
2023/06/17 00:02:02;;;;;;;6.28;5.32;;;;;;;-146.58;100.00;69501.63;5030010;28;20026;-68
2023/06/17 00:04:27;;;;;;;6.00;5.30;;;;;;;-146.58;100.00;69501.63;5028719;28;20085;-68
2023/06/17 00:06:53;;;;;;;9.43;5.55;;;;;;;-146.58;100.00;69501.63;5030165;28;20028;-68
2023/06/17 00:09:19;;;;;;;6.63;5.85;;;;;;;-146.58;100.00;69501.63;5028711;28;20041;-68
2023/06/17 00:11:45;;;;;;;7.68;5.90;;;;;;;-146.58;100.00;69501.63;5030510;28;20068;-68
2023/06/17 00:14:11;;;;;;;7.03;5.43;;;;;;;-146.58;100.00;69501.63;5028727;28;20623;-68
2023/06/17 00:16:43;;;;;;;7.03;6.10;;;;;;;-146.58;100.00;69501.63;5030510;28;20029;-68
2023/06/17 00:19:15;;;;;;;8.25;7.50;;;;;;;-146.58;100.00;69501.63;5028856;28;20111;-68
2023/06/17 00:21:49;;;;;;;6.88;6.15;;;;;;;-146.58;100.00;69501.63;5032340;28;20032;-68
2023/06/17 00:24:18;;;;;;;7.20;6.28;;;;;;;-146.58;100.00;69501.63;5032280;28;20044;-68
2023/06/17 00:26:44;;;;;;;9.38;7.25;;;;;;;-146.58;100.00;69501.63;5033323;28;20529;-68
2023/06/17 00:29:09;;;;;;;10.23;7.78;;;;;;;-146.58;100.00;69501.63;5032790;28;20124;-68
2023/06/17 00:31:35;;;;;;;15.15;8.18;;;;;;;-146.58;100.00;69501.63;5033736;28;20017;-68
2023/06/17 00:34:00;;;;;;;7.00;6.32;;;;;;;-146.58;100.00;69501.63;5032133;28;20045;-68
2023/06/17 00:36:26;;;;;;;8.52;6.85;;;;;;;-146.58;100.00;69501.63;5033437;28;20025;-68
2023/06/17 00:38:51;;;;;;;9.82;7.28;;;;;;;-146.58;100.00;69501.63;5031756;28;20052;-68
2023/06/17 00:41:17;;;;;;;9.90;7.93;;;;;;;-146.58;100.00;69501.63;5033751;28;20022;-68
2023/06/17 00:43:43;;;;;;;8.07;6.18;;;;;;;-146.58;100.00;69501.63;5031698;28;20037;-67
2023/06/17 00:46:11;;;;;;;8.65;7.78;;;;;;;-146.58;100.00;69501.63;5033545;28;20112;-68
2023/06/17 00:48:36;;;;;;;10.48;7.00;;;;;;;-146.58;100.00;69501.63;5032349;28;20095;-68
2023/06/17 00:51:02;;;;;;;8.02;6.38;;;;;;;-146.58;100.00;69501.63;5032672;28;20481;-68
2023/06/17 00:53:29;;;;;;;6.53;5.88;;;;;;;-146.58;100.00;69501.63;5032166;28;20042;-68
2023/06/17 00:55:55;;;;;;;8.88;7.95;;;;;;;-146.58;100.00;69501.63;5033490;28;20045;-68
2023/06/17 00:58:20;;;;;;;10.30;6.30;;;;;;;-146.58;100.00;69501.63;5031448;28;20536;-67
2023/06/17 01:00:46;;;;;;;11.43;7.40;;;;;;;-146.58;100.00;69501.63;5033134;28;20025;-68
2023/06/17 01:03:11;;;;;;;14.50;7.10;;;;;;;-146.58;100.00;69501.63;5031674;28;20132;-67
2023/06/17 01:05:38;;;;;;;9.45;6.70;;;;;;;-146.58;100.00;69501.63;5032675;28;20036;-68
2023/06/17 01:08:10;;;;;;;9.55;8.73;;;;;;;-146.58;100.00;69501.63;5031193;28;20040;-63
2023/06/17 01:10:46;;;;;;;8.43;7.20;;;;;;;-146.58;100.00;69501.63;5013676;28;20487;-67
2023/06/17 01:13:15;;;;;;;8.45;7.65;;;;;;;-146.58;100.00;69501.63;5011861;28;20088;-67
2023/06/17 01:15:41;;;;;;;12.65;10.50;;;;;;;-146.58;100.00;69501.63;5012846;28;20442;-67
2023/06/17 01:18:07;;;;;;;10.15;9.15;;;;;;;-146.58;100.00;69501.63;5012016;28;20068;-67
2023/06/17 01:20:33;;;;;;;11.18;8.70;;;;;;;-146.58;100.00;69501.63;5012543;28;20057;-67
2023/06/17 01:23:00;;;;;;;8.80;7.55;;;;;;;-146.58;100.00;69501.63;5013121;28;20026;-67
2023/06/17 01:25:29;;;;;;;8.88;8.07;;;;;;;-146.58;100.00;69501.63;5011793;28;20050;-67
2023/06/17 01:28:03;;;;;;;12.15;8.05;;;;;;;-146.58;100.00;69501.63;5012768;28;20108;-67
2023/06/17 01:30:29;;;;;;;9.20;8.30;;;;;;;-146.58;100.00;69501.63;5011527;28;20046;-67
2023/06/17 01:32:56;;;;;;;8.88;8.07;;;;;;;-146.58;100.00;69501.63;5012209;28;20037;-67
2023/06/17 01:35:23;;;;;;;11.02;8.35;;;;;;;-146.58;100.00;69501.63;5011063;28;20038;-67
2023/06/17 01:37:58;;;;;;;10.90;7.78;;;;;;;-146.58;100.00;69501.63;5012431;28;20026;-67
2023/06/17 01:40:24;;;;;;;24.90;8.20;;;;;;;-146.58;100.00;69501.63;5011450;28;20046;-67
2023/06/17 01:42:52;;;;;;;15.95;8.43;;;;;;;-146.58;100.00;69501.63;5012224;28;20026;-67
2023/06/17 01:45:19;;;;;;;8.63;7.75;;;;;;;-146.58;100.00;69501.63;5011400;28;20470;-67
2023/06/17 01:47:45;;;;;;;9.30;8.40;;;;;;;-146.58;100.00;69501.63;5012487;28;20028;-67
2023/06/17 01:50:10;;;;;;;10.50;9.30;;;;;;;-146.58;100.00;69501.63;5010710;28;20048;-67
2023/06/17 01:52:36;;;;;;;14.32;10.02;;;;;;;-146.58;100.00;69501.63;5012784;28;20030;-67
2023/06/17 01:55:01;;;;;;;13.15;9.32;;;;;;;-146.58;100.00;69501.63;5010699;28;20038;-67
2023/06/17 01:57:27;;;;;;;12.98;9.60;;;;;;;-146.58;100.00;69501.63;5012357;28;20428;-67
2023/06/17 01:59:54;;;;;;;12.32;8.63;;;;;;;-146.58;100.00;69501.63;5010467;28;20042;-67
2023/06/17 02:02:19;;;;;;;20.33;11.02;;;;;;;-146.58;100.00;69501.63;5012573;28;20385;-66
2023/06/17 02:04:47;;;;;;;10.52;9.35;;;;;;;-146.58;100.00;69501.63;5010442;28;20045;-66
2023/06/17 02:07:12;;;;;;;11.43;8.83;;;;;;;-146.58;100.00;69501.63;5012626;28;20029;-66
2023/06/17 02:09:38;;;;;;;17.85;9.73;;;;;;;-146.58;100.00;69501.63;5010998;28;20041;-66
2023/06/17 02:12:05;;;;;;;9.75;8.63;;;;;;;-146.58;100.00;69501.63;5011824;28;20041;-66
2023/06/17 02:14:31;;;;;;;11.15;8.00;;;;;;;-146.58;100.00;69501.63;5010747;28;20466;-66
2023/06/17 02:16:56;;;;;;;11.15;9.95;;;;;;;-146.58;100.00;69501.63;5011912;28;20031;-67
2023/06/17 02:19:22;;;;;;;15.30;9.45;;;;;;;-146.58;100.00;69501.63;5010078;28;20068;-67
2023/06/17 02:21:48;;;;;;;11.32;10.13;;;;;;;-146.58;100.00;69501.63;5012116;28;20080;-67
2023/06/17 02:24:13;;;;;;;11.02;9.23;;;;;;;9.57;100.00;163065.50;5010550;28;20049;-67
2023/06/17 02:26:40;;;;;;;13.38;11.70;;;;;;;9.55;100.00;163060.09;5011783;28;20030;-67
2023/06/17 02:29:05;;;;;;;16.15;12.18;;;;;;;9.48;100.00;163042.53;5010276;28;20049;-67
2023/06/17 02:31:32;;;;;;;13.80;11.23;;;;;;;9.46;100.00;163037.13;5012033;28;20508;-67
2023/06/17 02:33:58;;;;;;;12.15;10.23;;;;;;;9.42;100.00;163027.69;5009972;28;20041;-66
2023/06/17 02:36:23;;;;;;;14.00;9.40;;;;;;;9.38;100.00;163016.91;5012136;28;20140;-67
2023/06/17 02:38:50;;;;;;;11.80;10.57;;;;;;;9.36;100.00;163011.50;5009998;28;20526;-66
2023/06/17 02:41:15;;;;;;;12.35;10.50;;;;;;;9.31;100.00;162998.03;5011668;28;20022;-67
2023/06/17 02:43:40;;;;;;;11.73;10.10;;;;;;;9.30;100.00;162995.34;5009872;28;20045;-66
2023/06/17 02:46:06;;;;;;;17.48;10.00;;;;;;;9.26;100.00;162985.91;5011303;28;20109;-66
2023/06/17 02:48:31;;;;;;;15.88;12.23;;;;;;;9.27;100.00;162987.28;5009867;28;20034;-67
2023/06/17 02:50:56;;;;;;;11.63;10.25;;;;;;;9.28;100.00;162989.91;5011344;28;20080;-66
2023/06/17 02:53:22;;;;;;;13.55;12.25;;;;;;;9.31;100.00;162998.03;5010369;28;20037;-66
2023/06/17 02:55:48;;;;;;;12.63;11.43;;;;;;;9.35;100.00;163008.81;5010891;28;20029;-66
2023/06/17 02:58:14;;;;;;;17.17;12.40;;;;;;;9.35;100.00;163008.81;5009890;28;20481;-66
2023/06/17 03:00:40;;;;;;;13.48;11.15;;;;;;;9.33;100.00;163003.44;5011192;28;20472;-66
2023/06/17 03:03:06;;;;;;;18.02;12.43;;;;;;;9.31;100.00;162998.03;5009344;28;20054;-66
2023/06/17 03:05:31;;;;;;;16.35;13.18;;;;;;;9.32;100.00;163000.75;5011443;28;20358;-66
2023/06/17 03:07:57;;;;;;;17.27;13.25;;;;;;;9.32;100.00;163000.75;5011140;28;20041;-67
2023/06/17 03:10:22;;;;;;;16.48;14.93;;;;;;;9.35;100.00;163008.81;5009615;28;20071;-66
2023/06/17 03:12:47;;;;;;;24.88;13.73;;;;;;;9.35;100.00;163008.81;5011445;28;20100;-67
2023/06/17 03:15:13;;;;;;;14.70;13.00;;;;;;;9.32;100.00;163000.75;5009573;28;20458;-66
2023/06/17 03:17:38;;;;;;;20.85;12.07;;;;;;;9.30;100.00;162996.72;5011126;28;20030;-67
2023/06/17 03:20:08;;;;;;;18.48;13.27;;;;;;;9.27;100.00;162987.28;5008036;28;20386;-67
2023/06/17 03:22:33;;;;;;;16.73;13.02;;;;;;;9.27;100.00;162987.28;5011175;28;20034;-68
2023/06/17 03:24:58;;;;;;;13.75;11.98;;;;;;;9.26;100.00;162985.91;5025384;28;20493;-68
2023/06/17 03:27:24;;;;;;;17.77;13.07;;;;;;;9.26;100.00;162984.56;5030784;28;20029;-68
2023/06/17 03:29:49;;;;;;;14.82;13.07;;;;;;;9.21;100.00;162973.75;5029233;28;20048;-68
2023/06/17 03:32:15;;;;;;;16.00;13.57;;;;;;;9.20;100.00;162971.03;5029148;28;20026;-68
2023/06/17 03:34:40;;;;;;;30.60;13.38;;;;;;;9.19;100.00;162968.38;5029339;28;20038;-68
2023/06/17 03:37:06;;;;;;;16.73;13.57;;;;;;;9.13;100.00;162952.16;5030463;28;20021;-68
2023/06/17 03:39:31;;;;;;;15.73;11.55;;;;;;;9.14;100.00;162954.88;5028679;28;20405;-67
2023/06/17 03:41:56;;;;;;;17.25;15.50;;;;;;;9.11;100.00;162946.81;5030744;28;20029;-67
2023/06/17 03:44:22;;;;;;;14.23;12.82;;;;;;;9.15;100.00;162956.25;5029466;28;20489;-67
2023/06/17 03:46:47;;;;;;;23.23;15.32;;;;;;;9.15;100.00;162957.56;5030077;28;20040;-68
2023/06/17 03:49:12;;;;;;;22.83;15.93;;;;;;;9.15;100.00;162957.56;5029157;28;20049;-68
2023/06/17 03:51:38;;;;;;;26.17;14.85;;;;;;;9.18;100.00;162965.69;5030420;28;20025;-67
2023/06/17 03:54:03;;;;;;;23.58;14.25;;;;;;;9.19;100.00;162968.38;5028900;28;20034;-67
2023/06/17 03:56:28;;;;;;;22.30;13.05;;;;;;;9.19;100.00;162968.38;5032321;28;20114;-66
2023/06/17 03:58:54;;;;;;;35.30;17.08;;;;;;;9.17;100.00;162962.97;5032851;28;20048;-66
2023/06/17 04:01:19;;;;;;;21.92;13.82;;;;;;;9.16;100.00;162960.28;5034097;28;20476;-66
2023/06/17 04:03:45;;;;;;;17.70;13.38;;;;;;;9.17;100.00;162961.59;5032571;28;20111;-66
2023/06/17 04:06:10;;;;;;;16.33;14.38;;;;;;;9.17;100.00;162962.97;5034300;28;20021;-67
2023/06/17 04:08:36;;;;;;;15.02;12.55;;;;;;;9.19;100.00;162968.38;5032365;28;20125;-68
2023/06/17 04:11:02;;;;;;;17.65;13.48;;;;;;;9.27;100.00;162987.28;5033303;28;20049;-68
2023/06/17 04:13:27;;;;;;;27.08;15.10;;;;;;;9.33;100.00;163003.44;5032662;28;20044;-69
2023/06/17 04:15:53;;;;;;;27.38;15.77;;;;;;;9.36;100.00;163011.50;5028773;28;20026;-66
2023/06/17 04:18:18;;;;;;;16.85;13.57;;;;;;;9.39;100.00;163018.25;5024967;28;20066;-68
2023/06/17 04:20:44;;;;;;;16.10;12.98;;;;;;;9.46;100.00;163038.50;5033423;28;20041;-67
2023/06/17 04:23:09;;;;;;;17.77;15.73;;;;;;;9.55;100.00;163061.41;5032926;28;20052;-68
2023/06/17 04:25:36;;;;;;;15.95;13.95;;;;;;;9.65;100.00;163087.03;5033841;28;20037;-67
2023/06/17 04:28:02;;;;;;;13.98;12.52;;;;;;;9.73;100.00;163108.63;5031440;28;20032;-66
2023/06/17 04:30:27;;;;;;;14.90;13.02;;;;;;;9.84;100.00;163136.97;5034012;28;20025;-66
2023/06/17 04:32:58;;;;;;;15.85;14.20;;;;;;;9.95;100.00;163165.28;5033567;28;20028;-68
2023/06/17 04:35:24;;;;;;;18.08;16.27;;;;;;;9.99;100.00;163176.09;5032442;28;20696;-68
2023/06/17 04:37:53;;;;;;;19.17;16.17;;;;;;;10.18;100.00;163224.66;5031398;28;20044;-68
2023/06/17 04:40:19;;;;;;;21.65;17.02;;;;;;;10.31;100.00;163261.13;5030509;28;20408;-68
2023/06/17 04:42:45;;;;;;;19.10;16.92;;;;;;;10.42;100.00;163289.50;5033470;28;20021;-68
2023/06/17 04:45:10;;;;;;;20.40;17.48;;;;;;;-146.58;100.00;69501.63;5031666;28;20044;-68
2023/06/17 04:47:36;;;;;;;21.05;17.00;;;;;;;-146.58;100.00;69501.63;5032592;28;20029;-67
2023/06/17 04:50:02;;;;;;;18.33;16.30;;;;;;;-146.58;100.00;69501.63;5031355;28;20045;-67
2023/06/17 04:52:29;;;;;;;24.17;19.00;;;;;;;-146.58;100.00;69501.63;5016589;28;20384;-67
2023/06/17 04:54:55;;;;;;;25.50;17.45;;;;;;;-146.58;100.00;69501.63;5011710;28;20521;-67
2023/06/17 04:57:21;;;;;;;21.25;19.13;;;;;;;-146.58;100.00;69501.63;5013483;28;20022;-67
2023/06/17 04:59:46;;;;;;;24.50;17.08;;;;;;;-146.58;100.00;69501.63;5011158;28;20530;-67
2023/06/17 05:02:13;;;;;;;22.75;20.45;;;;;;;-146.58;100.00;69501.63;5030419;28;20025;-67
2023/06/17 05:04:38;;;;;;;21.60;19.17;;;;;;;-146.58;100.00;69501.63;5031520;28;20399;-68
2023/06/17 05:07:04;;;;;;;22.33;17.02;;;;;;;-146.58;100.00;69501.63;5031492;28;20017;-68
2023/06/17 05:09:30;;;;;;;21.23;18.90;;;;;;;-146.58;100.00;69501.63;5029687;28;20053;-68
2023/06/17 05:11:55;;;;;;;19.23;17.25;;;;;;;-146.58;100.00;69501.63;5032537;28;20022;-68
2023/06/17 05:14:21;;;;;;;19.20;17.08;;;;;;;-146.58;100.00;69501.63;5030842;28;20049;-67
2023/06/17 05:16:46;;;;;;;24.23;17.52;;;;;;;-146.58;100.00;69501.63;5030508;28;20022;-65
2023/06/17 05:19:11;;;;;;;19.38;14.93;;;;;;;-146.58;100.00;69501.63;5030770;28;20103;-66
2023/06/17 05:21:37;;;;;;;19.80;16.42;;;;;;;-146.58;100.00;69501.63;5031830;28;20025;-66
2023/06/17 05:24:02;;;;;;;21.73;15.63;;;;;;;-146.58;100.00;69501.63;5029645;28;20045;-66
2023/06/17 05:26:27;;;;;;;20.30;16.63;;;;;;;-146.58;100.00;69501.63;5032212;28;20025;-65
2023/06/17 05:28:53;;;;;;;18.58;15.55;;;;;;;-146.58;100.00;69501.63;5030588;28;20058;-66
2023/06/17 05:31:19;;;;;;;18.75;16.77;;;;;;;-146.58;100.00;69501.63;5030774;28;20082;-68
2023/06/17 05:33:44;;;;;;;24.52;16.58;;;;;;;-146.58;100.00;69501.63;5030328;28;20050;-67
2023/06/17 05:36:09;;;;;;;18.58;14.57;;;;;;;-146.58;100.00;69501.63;5032129;28;20441;-66
2023/06/17 05:38:35;;;;;;;16.92;14.70;;;;;;;-146.58;100.00;69501.63;5029157;28;20390;-63
2023/06/17 05:41:00;;;;;;;16.88;14.70;;;;;;;-146.58;100.00;69501.63;5032111;28;20037;-62
2023/06/17 05:43:27;;;;;;;21.38;18.08;;;;;;;-146.58;100.00;69501.63;5030236;28;20040;-62
2023/06/17 05:45:52;;;;;;;19.85;15.55;;;;;;;-146.58;100.00;69501.63;5030562;28;20025;-63
2023/06/17 05:48:17;;;;;;;19.67;16.88;;;;;;;-146.58;100.00;69501.63;5030621;28;20032;-62
2023/06/17 05:50:43;;;;;;;25.27;15.73;;;;;;;-146.58;100.00;69501.63;5031596;28;20025;-62
2023/06/17 05:53:08;;;;;;;19.33;15.35;;;;;;;-146.58;100.00;69501.63;5028616;28;20029;-62
2023/06/17 05:55:34;;;;;;;21.58;15.95;;;;;;;-146.58;100.00;69501.63;5030968;28;20021;-62
2023/06/17 05:57:59;;;;;;;19.17;13.55;;;;;;;-146.58;100.00;69501.63;5031444;28;20041;-62
2023/06/17 06:00:24;;;;;;;21.23;13.50;;;;;;;-146.58;100.00;69501.63;5028176;28;20116;-63
2023/06/17 06:02:50;;;;;;;14.90;12.25;;;;;;;-146.58;100.00;69501.63;5030507;28;20088;-62
2023/06/17 06:05:15;;;;;;;14.75;11.77;;;;;;;-146.58;100.00;69501.63;5030016;28;20045;-63
2023/06/17 06:07:41;;;;;;;21.55;12.75;;;;;;;-146.58;100.00;69501.63;5029878;28;20013;-63
2023/06/17 06:10:07;;;;;;;15.00;12.88;;;;;;;-146.58;100.00;69501.63;5029615;28;20053;-63
2023/06/17 06:12:33;;;;;;;28.70;15.30;;;;;;;-146.58;100.00;69501.63;5011747;28;20030;-63
2023/06/17 06:14:58;;;;;;;17.05;12.02;;;;;;;-146.58;100.00;69501.63;5015079;28;20044;-63
2023/06/17 06:17:24;;;;;;;13.40;12.00;;;;;;;-146.58;100.00;69501.63;5031470;28;20025;-62
2023/06/17 06:19:51;;;;;;;14.57;11.73;;;;;;;-146.58;100.00;69501.63;5028538;28;20045;-63
2023/06/17 06:22:17;;;;;;;12.68;11.45;;;;;;;-146.58;100.00;69501.63;5030223;28;20049;-63
2023/06/17 06:24:42;;;;;;;10.57;9.05;;;;;;;-146.58;100.00;69501.63;5029315;28;20463;-63
2023/06/17 06:27:07;;;;;;;23.55;12.23;;;;;;;-146.58;100.00;69501.63;5030845;28;20109;-62
2023/06/17 06:29:33;;;;;;;22.17;10.80;;;;;;;-146.58;100.00;69501.63;5029518;28;20086;-63
2023/06/17 06:31:58;;;;;;;13.82;9.98;;;;;;;-146.58;100.00;69501.63;5030017;28;20048;-63
2023/06/17 06:34:23;;;;;;;9.90;8.82;;;;;;;-146.58;100.00;69501.63;5029220;28;20447;-63
2023/06/17 06:36:48;;;;;;;20.58;10.55;;;;;;;-146.58;100.00;69501.63;5030394;28;20031;-62
2023/06/17 06:39:15;;;;;;;21.85;10.20;;;;;;;18.54;100.00;165417.97;5025301;28;20044;-62
2023/06/17 06:41:40;;;;;;;16.00;9.50;;;;;;;-146.58;100.00;69501.63;5021104;28;20112;-62
2023/06/17 06:44:06;;;;;;;10.88;9.77;;;;;;;18.78;100.00;165479.03;5027720;28;20404;-62
2023/06/17 06:46:31;;;;;;;12.88;8.40;;;;;;;18.86;100.00;165502.06;5029511;28;20021;-67
2023/06/17 06:48:58;;;;;;;10.23;9.18;;;;;;;18.87;100.00;165503.47;5029121;28;20061;-67
2023/06/17 06:51:23;;;;;;;17.35;9.20;;;;;;;18.98;100.00;165533.31;5030923;28;20023;-66
2023/06/17 06:53:48;;;;;;;13.38;9.80;;;;;;;-146.58;100.00;69501.63;5027070;28;20530;-67
2023/06/17 06:56:14;;;;;;;11.65;9.35;;;;;;;-146.58;100.00;69501.63;5030453;28;20026;-67
2023/06/17 06:58:39;;;;;;;12.20;8.45;;;;;;;-146.58;100.00;69501.63;5029142;28;20037;-67
2023/06/17 07:01:05;;;;;;;13.60;9.48;;;;;;;-146.58;100.00;69501.63;5029067;28;20392;-67
2023/06/17 07:03:30;;;;;;;15.18;9.35;;;;;;;-146.58;100.00;69501.63;5029055;28;20095;-67
2023/06/17 07:05:55;;;;;;;9.23;8.30;;;;;;;-146.58;100.00;69501.63;5028870;28;20041;-67
2023/06/17 07:08:21;;;;;;;12.65;9.18;;;;;;;-146.58;100.00;69501.63;5028484;28;20039;-67
2023/06/17 07:10:46;;;;;;;9.82;8.38;;;;;;;-146.58;100.00;69501.63;5024101;28;20029;-67
2023/06/17 07:13:11;;;;;;;10.15;9.05;;;;;;;-146.58;100.00;69501.63;5028038;28;20393;-66
2023/06/17 07:15:37;;;;;;;8.52;7.57;;;;;;;-146.58;100.00;69501.63;5030047;28;20026;-67
2023/06/17 07:18:03;;;;;;;11.50;8.88;;;;;;;-146.58;100.00;69501.63;5030422;28;20037;-66
2023/06/17 07:20:29;;;;;;;11.68;8.70;;;;;;;-146.58;100.00;69501.63;5029201;28;20037;-66
2023/06/17 07:22:54;;;;;;;12.30;8.60;;;;;;;20.21;100.00;165856.31;5029901;28;20495;-66
2023/06/17 07:25:20;;;;;;;14.73;12.02;;;;;;;20.29;100.00;165878.00;5028850;28;20044;-66
2023/06/17 07:27:45;;;;;;;12.38;8.85;;;;;;;20.41;100.00;165907.88;5030454;28;20025;-67
2023/06/17 07:30:11;;;;;;;13.48;8.45;;;;;;;-146.58;100.00;69501.63;5028341;28;20076;-66
2023/06/17 07:32:37;;;;;;;13.30;8.05;;;;;;;20.77;100.00;166004.31;5030217;28;20441;-66
2023/06/17 07:35:03;;;;;;;14.05;8.77;;;;;;;-146.58;100.00;69501.63;5028983;28;20044;-67
2023/06/17 07:37:28;;;;;;;10.57;8.15;;;;;;;-146.58;100.00;69501.63;5030470;28;20029;-67
2023/06/17 07:39:53;;;;;;;13.35;8.63;;;;;;;-146.58;100.00;69501.63;5028576;28;20034;-67
2023/06/17 07:42:19;;;;;;;11.45;8.63;;;;;;;-146.58;100.00;69501.63;5030496;28;20079;-67
2023/06/17 07:44:44;;;;;;;18.20;9.38;;;;;;;-146.58;100.00;69501.63;5022677;28;20045;-67
2023/06/17 07:47:10;;;;;;;13.02;8.52;;;;;;;-146.58;100.00;69501.63;5010473;28;20021;-66
2023/06/17 07:49:36;;;;;;;12.98;8.32;;;;;;;-146.58;100.00;69501.63;5008580;28;20034;-65
2023/06/17 07:52:02;;;;;;;9.90;7.63;;;;;;;-146.58;100.00;69501.63;5009909;28;20030;-65
2023/06/17 07:54:28;;;;;;;12.52;7.45;;;;;;;-146.58;100.00;69501.63;5010399;28;20037;-65
2023/06/17 07:56:53;;;;;;;12.05;6.97;;;;;;;-146.58;100.00;69501.63;5028480;28;20025;-65
2023/06/17 07:59:18;;;;;;;11.13;8.35;;;;;;;-146.58;100.00;69501.63;5027747;28;20046;-65
2023/06/17 08:01:45;;;;;;;7.95;7.15;;;;;;;-146.58;100.00;69501.63;5029489;28;20034;-65
2023/06/17 08:04:10;;;;;;;10.65;7.55;;;;;;;-146.58;100.00;69501.63;5027813;28;20049;-65
2023/06/17 08:06:37;;;;;;;10.88;6.97;;;;;;;-146.58;100.00;69501.63;5025874;28;20064;-65
2023/06/17 08:09:03;;;;;;;6.88;6.15;;;;;;;-146.58;100.00;69501.63;5031877;28;20049;-65
2023/06/17 08:11:28;;;;;;;8.43;7.63;;;;;;;-146.58;100.00;69501.63;5029489;28;20036;-65
2023/06/17 08:13:53;;;;;;;11.40;8.65;;;;;;;-146.58;100.00;69501.63;5032087;28;20036;-66
2023/06/17 08:16:19;;;;;;;11.75;7.97;;;;;;;-146.58;100.00;69501.63;5024446;28;20404;-65
2023/06/17 08:18:44;;;;;;;7.63;6.82;;;;;;;-146.58;100.00;69501.63;5029362;28;20037;-65
2023/06/17 08:21:10;;;;;;;10.30;9.10;;;;;;;-146.58;100.00;69501.63;5027864;28;20034;-65
2023/06/17 08:23:35;;;;;;;8.52;6.95;;;;;;;-146.58;100.00;69501.63;5029752;28;20033;-66
2023/06/17 08:26:00;;;;;;;8.70;7.05;;;;;;;-146.58;100.00;69501.63;5027819;28;20045;-65
2023/06/17 08:28:26;;;;;;;10.60;6.75;;;;;;;-146.58;100.00;69501.63;5028009;28;20029;-65
2023/06/17 08:30:52;;;;;;;12.70;8.68;;;;;;;-146.58;100.00;69501.63;5029902;28;20018;-65
2023/06/17 08:33:17;;;;;;;9.40;8.48;;;;;;;-146.58;100.00;69501.63;5029206;28;22030;-65
2023/06/17 08:35:42;;;;;;;10.18;7.63;;;;;;;-146.58;100.00;69501.63;5028321;28;20030;-65
2023/06/17 08:38:08;;;;;;;14.40;8.43;;;;;;;-146.58;100.00;69501.63;5027811;28;20036;-66
2023/06/17 08:40:35;;;;;;;12.20;8.27;;;;;;;-146.58;100.00;69501.63;5029543;28;20017;-65
2023/06/17 08:43:02;;;;;;;10.15;7.70;;;;;;;-146.58;100.00;69501.63;5028476;28;20025;-65
2023/06/17 08:45:28;;;;;;;10.63;7.20;;;;;;;-146.58;100.00;69501.63;5033070;28;20063;-66
2023/06/17 08:47:53;;;;;;;12.32;7.80;;;;;;;-146.58;100.00;69501.63;5032834;28;20061;-65
2023/06/17 08:50:19;;;;;;;10.38;7.63;;;;;;;-146.58;100.00;69501.63;5029999;28;20145;-66
2023/06/17 08:52:46;;;;;;;8.20;7.38;;;;;;;-146.58;100.00;69501.63;5032968;28;20064;-66
2023/06/17 08:55:12;;;;;;;7.00;6.32;;;;;;;-146.58;100.00;69501.63;5030779;28;20039;-66
2023/06/17 08:57:39;;;;;;;9.10;7.15;;;;;;;-146.58;100.00;69501.63;5031151;28;20033;-66
2023/06/17 09:00:06;;;;;;;12.63;8.43;;;;;;;-146.58;100.00;69501.63;5030355;28;20033;-66
2023/06/17 09:02:33;;;;;;;18.00;7.28;;;;;;;-146.58;100.00;69501.63;5031526;28;20080;-66
2023/06/17 09:04:58;;;;;;;9.88;7.95;;;;;;;-146.58;100.00;69501.63;5030380;28;20041;-66
2023/06/17 09:07:24;;;;;;;8.38;6.60;;;;;;;-146.58;100.00;69501.63;5032402;28;20491;-66
2023/06/17 09:09:54;;;;;;;11.93;6.55;;;;;;;-146.58;100.00;69501.63;5030992;28;20104;-66
2023/06/17 09:12:22;;;;;;;11.13;7.43;;;;;;;-146.58;100.00;69501.63;5031727;28;20546;-66
2023/06/17 09:14:48;;;;;;;7.45;6.13;;;;;;;-146.58;100.00;69501.63;5029900;28;20045;-66
2023/06/17 09:17:36;;;;;;;15.65;7.15;;;;;;;-146.58;100.00;69501.63;5032425;28;20023;-66
2023/06/17 09:20:15;;;;;;;10.93;7.18;;;;;;;-146.58;100.00;69501.63;5030196;28;20045;-66
2023/06/17 09:22:43;;;;;;;11.25;8.20;;;;;;;-146.58;100.00;69501.63;5031682;28;20120;-67
2023/06/17 09:25:14;;;;;;;9.30;6.15;;;;;;;-146.58;100.00;69501.63;5031101;28;20041;-66
2023/06/17 09:27:53;;;;;;;12.65;6.80;;;;;;;-146.58;100.00;69501.63;5032183;28;20548;-67
2023/06/17 09:30:20;;;;;;;7.70;6.68;;;;;;;-146.58;100.00;69501.63;5031133;28;20041;-67
2023/06/17 09:32:49;;;;;;;9.55;8.15;;;;;;;-146.58;100.00;69501.63;5032159;28;20017;-67
2023/06/17 09:35:15;;;;;;;7.57;6.80;;;;;;;-146.58;100.00;69501.63;5030702;28;20051;-67
2023/06/17 09:37:53;;;;;;;7.18;6.38;;;;;;;-146.58;100.00;69501.63;5032148;28;20028;-67
2023/06/17 09:40:27;;;;;;;9.40;5.75;;;;;;;-146.58;100.00;69501.63;5030697;28;20104;-68
2023/06/17 09:42:52;;;;;;;14.18;5.90;;;;;;;-146.58;100.00;69501.63;5031428;28;20480;-67
2023/06/17 09:45:23;;;;;;;8.82;5.45;;;;;;;-146.58;100.00;69501.63;5030783;28;20052;-67
2023/06/17 09:47:53;;;;;;;7.85;5.72;;;;;;;-146.58;100.00;69501.63;5031900;28;20022;-63
2023/06/17 09:50:24;;;;;;;8.20;5.97;;;;;;;-146.58;100.00;69501.63;5030173;28;20139;-63
2023/06/17 09:52:55;;;;;;;11.88;5.47;;;;;;;-146.58;100.00;69501.63;5031252;28;20033;-63
2023/06/17 09:55:22;;;;;;;10.10;5.47;;;;;;;-146.58;100.00;69501.63;5029093;28;20076;-63
2023/06/17 09:57:53;;;;;;;4.63;4.20;;;;;;;-146.58;100.00;69501.63;5031073;28;20033;-63
2023/06/17 10:00:21;;;;;;;10.00;5.32;;;;;;;-146.58;100.00;69501.63;5029563;28;20519;-63
2023/06/17 10:02:46;;;;;;;6.80;6.13;;;;;;;-146.58;100.00;69501.63;5031528;28;20094;-63
2023/06/17 10:05:12;;;;;;;5.20;4.70;;;;;;;-146.58;100.00;69501.63;5030052;28;20037;-63
2023/06/17 10:07:39;;;;;;;8.68;4.28;;;;;;;-146.58;100.00;69501.63;5031712;28;20388;-63
2023/06/17 10:10:08;;;;;;;8.23;4.63;;;;;;;-146.58;100.00;69501.63;5030193;28;20492;-63
2023/06/17 10:12:36;;;;;;;9.57;5.90;;;;;;;25.96;100.00;167370.84;5031460;28;20083;-63
2023/06/17 10:15:03;;;;;;;;;;;;;;;26.17;100.00;167425.41;5030394;28;20565;-63
2023/06/17 10:17:29;;;;;;;9.88;5.07;;;;;;;26.28;100.00;167453.97;5031648;28;19916;-63
2023/06/17 10:19:57;;;;;;;7.10;5.82;;;;;;;26.50;100.00;167512.50;5027378;28;20378;-63
2023/06/17 10:22:23;;;;;;;9.98;4.38;;;;;;;26.49;100.00;167509.75;5031505;28;20029;-63
2023/06/17 10:24:49;;;;;;;6.43;5.25;;;;;;;26.40;100.00;167485.25;5026668;28;20048;-63
2023/06/17 10:27:18;;;;;;;5.20;4.75;;;;;;;26.58;100.00;167532.94;5029325;28;20029;-63
2023/06/17 10:29:43;;;;;;;5.03;4.15;;;;;;;26.70;100.00;167564.22;5029541;28;20041;-63
2023/06/17 10:32:18;;;;;;;6.55;4.47;;;;;;;26.88;100.00;167613.31;5031369;28;20190;-63
2023/06/17 10:35:06;;;;;;;8.20;4.20;;;;;;;-146.58;100.00;69501.63;5016517;28;20581;-63
2023/06/17 10:37:37;;;;;;;6.55;4.53;;;;;;;-146.58;100.00;69501.63;5030101;28;20029;-63
2023/06/17 10:40:19;;;;;;;5.25;4.80;;;;;;;-146.58;100.00;69501.63;5029235;28;20038;-63
2023/06/17 10:43:03;;;;;;;8.70;5.30;;;;;;;-146.58;100.00;69501.63;5029748;28;20369;-63
2023/06/17 10:45:32;;;;;;;6.07;3.58;;;;;;;-146.58;100.00;69501.63;5010150;28;20042;-63
2023/06/17 10:48:19;;;;;;;4.90;4.28;;;;;;;-146.58;100.00;69501.63;5010252;28;20030;-63
2023/06/17 10:50:48;;;;;;;7.18;4.57;;;;;;;-146.58;100.00;69501.63;5029400;28;20072;-64
2023/06/17 10:53:16;;;;;;;8.25;5.10;;;;;;;-146.58;100.00;69501.63;5029255;28;20026;-63
2023/06/17 10:55:43;;;;;;;11.50;4.40;;;;;;;-146.58;100.00;69501.63;5030403;28;20057;-63
2023/06/17 10:58:09;;;;;;;10.45;7.32;;;;;;;-146.58;100.00;69501.63;5029234;28;20508;-63
2023/06/17 11:00:34;;;;;;;9.45;4.95;;;;;;;-146.58;100.00;69501.63;5030649;28;20104;-63
2023/06/17 11:03:00;;;;;;;5.15;4.10;;;;;;;-146.58;100.00;69501.63;5028793;28;20042;-63